createdAt,value
2023-06-19T00:03:10.799Z,0.80
2023-06-19T00:08:16.296Z,1.00
2023-06-19T00:13:20.049Z,0.80
2023-06-19T00:18:23.724Z,0.95
2023-06-19T00:23:29.078Z,0.77
2023-06-19T00:28:33.225Z,1.00
2023-06-19T00:33:36.931Z,0.93
2023-06-19T00:38:42.528Z,1.13
2023-06-19T00:43:46.482Z,0.77
2023-06-19T00:48:50.647Z,1.13
2023-06-19T00:53:56.022Z,0.90
2023-06-19T00:59:00.756Z,0.82
2023-06-19T01:04:04.919Z,1.00
2023-06-19T01:09:13.228Z,0.77
2023-06-19T01:14:20.965Z,1.10
2023-06-19T01:19:24.772Z,0.77
2023-06-19T01:24:30.216Z,0.70
2023-06-19T01:29:34.051Z,0.95
2023-06-19T01:34:41.081Z,0.77
2023-06-19T01:39:47.837Z,1.05
2023-06-19T01:44:52.759Z,1.00
2023-06-19T01:49:56.750Z,0.90
2023-06-19T01:55:03.022Z,0.90
2023-06-19T02:00:09.190Z,0.85
2023-06-19T02:05:13.163Z,1.05
2023-06-19T02:10:18.534Z,1.13
2023-06-19T02:20:26.495Z,1.17
2023-06-19T02:30:35.044Z,1.05
2023-06-19T02:35:38.743Z,0.90
2023-06-19T02:40:44.956Z,1.15
2023-06-19T02:45:48.846Z,1.38
2023-06-19T02:50:52.712Z,1.10
2023-06-19T02:55:59.047Z,1.58
2023-06-19T03:01:02.786Z,1.30
2023-06-19T03:06:08.114Z,1.05
2023-06-19T03:11:13.441Z,1.60
2023-06-19T03:16:17.329Z,1.33
2023-06-19T03:21:21.429Z,1.40
2023-06-19T03:26:27.043Z,1.17
2023-06-19T03:36:33.769Z,1.60
2023-06-19T03:41:39.063Z,1.80
2023-06-19T03:46:42.915Z,1.83
2023-06-19T03:51:46.632Z,1.50
2023-06-19T03:56:51.978Z,1.45
2023-06-19T04:01:55.798Z,1.80
2023-06-19T04:06:59.736Z,1.90
2023-06-19T04:12:05.624Z,1.58
2023-06-19T04:17:09.307Z,1.80
2023-06-19T04:22:13.000Z,2.10
2023-06-19T04:27:18.300Z,1.80
2023-06-19T04:32:22.096Z,1.52
2023-06-19T04:37:25.834Z,1.75
2023-06-19T04:42:31.187Z,1.77
2023-06-19T04:47:47.943Z,1.77
2023-06-19T04:52:55.956Z,1.73
2023-06-19T04:58:01.352Z,1.70
2023-06-19T05:03:05.202Z,2.20
2023-06-19T05:08:08.873Z,1.50
2023-06-19T05:13:14.243Z,1.52
2023-06-19T05:18:18.022Z,1.60
2023-06-19T05:23:21.726Z,1.70
2023-06-19T05:28:27.050Z,1.52
2023-06-19T05:33:30.772Z,1.30
2023-06-19T05:38:34.518Z,1.40
2023-06-19T05:43:40.160Z,1.33
2023-06-19T05:48:43.867Z,1.25
2023-06-19T05:53:47.543Z,1.35
2023-06-19T05:58:52.811Z,1.30
2023-06-19T06:03:56.581Z,1.00
2023-06-19T06:09:00.217Z,1.08
2023-06-19T06:14:05.609Z,1.63
2023-06-19T06:19:09.373Z,1.25
2023-06-19T06:24:13.099Z,1.08
2023-06-19T06:29:18.472Z,1.48
2023-06-19T06:34:22.275Z,1.25
2023-06-19T06:39:25.896Z,1.90
2023-06-19T06:44:31.224Z,1.88
2023-06-19T06:49:34.927Z,1.80
2023-06-19T06:54:38.587Z,1.95
2023-06-19T06:59:43.908Z,1.88
2023-06-19T07:04:47.589Z,1.90
2023-06-19T07:09:51.300Z,2.28
2023-06-19T07:14:58.029Z,1.75
2023-06-19T07:20:01.768Z,2.03
2023-06-19T07:25:06.374Z,1.98
2023-06-19T07:30:14.845Z,2.10
2023-06-19T07:35:20.316Z,2.33
2023-06-19T07:40:24.448Z,2.03
2023-06-19T07:45:30.083Z,2.35
2023-06-19T07:50:33.959Z,2.30
2023-06-19T07:55:37.773Z,2.30
2023-06-19T08:00:43.141Z,2.85
2023-06-19T08:05:46.877Z,2.17
2023-06-19T08:10:50.694Z,2.72
2023-06-19T08:15:56.029Z,2.50
2023-06-19T08:20:59.650Z,2.53
2023-06-19T08:26:03.647Z,2.58
2023-06-19T08:31:09.149Z,2.90
2023-06-19T08:36:12.907Z,2.50
2023-06-19T08:41:16.631Z,2.70
2023-06-19T08:46:22.162Z,2.28
2023-06-19T08:51:25.838Z,2.60
2023-06-19T08:56:29.515Z,2.67
2023-06-19T09:01:34.852Z,2.72
2023-06-19T09:06:46.919Z,2.70
2023-06-19T09:12:01.680Z,2.38
2023-06-19T09:17:11.013Z,2.55
2023-06-19T09:22:15.705Z,2.95
2023-06-19T09:27:20.590Z,2.45
2023-06-19T09:32:27.552Z,2.50
2023-06-19T09:37:32.437Z,3.10
2023-06-19T09:42:36.740Z,2.70
2023-06-19T09:47:47.868Z,2.67
2023-06-19T09:52:53.763Z,2.55
2023-06-19T09:57:57.809Z,2.20
2023-06-19T10:03:03.280Z,2.72
2023-06-19T10:08:07.119Z,2.28
2023-06-19T10:13:18.323Z,2.55
2023-06-19T10:18:24.571Z,2.65
2023-06-19T10:23:28.427Z,2.58
2023-06-19T10:28:33.855Z,2.30
2023-06-19T10:33:39.640Z,2.75
2023-06-19T10:38:43.326Z,2.53
2023-06-19T10:43:56.687Z,2.88
2023-06-19T10:49:02.566Z,2.40
2023-06-19T10:54:06.730Z,2.45
2023-06-19T10:59:13.330Z,2.80
2023-06-19T11:04:18.769Z,2.25
2023-06-19T11:09:22.471Z,2.47
2023-06-19T11:14:31.064Z,2.50
2023-06-19T11:19:36.968Z,2.17
2023-06-19T11:24:46.250Z,2.33
2023-06-19T11:29:50.033Z,2.28
2023-06-19T11:34:56.018Z,2.33
2023-06-19T11:45:06.160Z,2.42
2023-06-19T11:50:12.656Z,2.50
2023-06-19T11:55:16.732Z,2.10
2023-06-19T12:00:20.709Z,2.17
2023-06-19T12:05:27.077Z,1.65
2023-06-19T12:10:30.805Z,2.47
2023-06-19T12:15:36.111Z,2.22
2023-06-19T12:20:43.084Z,1.95
2023-06-19T12:25:46.803Z,2.37
2023-06-19T12:30:50.891Z,2.22
2023-06-19T12:35:56.206Z,2.40
2023-06-19T12:41:00.996Z,2.17
2023-06-19T12:46:04.921Z,2.08
2023-06-19T12:51:11.229Z,1.75
2023-06-19T12:56:14.922Z,2.20
2023-06-19T13:01:18.854Z,2.17
2023-06-19T13:06:24.521Z,2.10
2023-06-19T13:11:28.182Z,2.00
2023-06-19T13:16:45.455Z,1.83
2023-06-19T13:21:51.272Z,2.03
2023-06-19T13:26:54.964Z,1.80
2023-06-19T13:31:58.632Z,1.92
2023-06-19T13:37:04.072Z,2.15
2023-06-19T13:42:08.461Z,1.80
2023-06-19T13:47:12.190Z,2.13
2023-06-19T13:52:17.626Z,2.20
2023-06-19T13:57:21.343Z,1.73
2023-06-19T14:02:25.124Z,1.90
2023-06-19T14:07:30.597Z,1.85
2023-06-19T14:12:34.309Z,1.83
2023-06-19T14:17:40.189Z,2.10
2023-06-19T14:22:45.533Z,1.90
2023-06-19T14:27:49.242Z,1.63
2023-06-19T14:32:53.020Z,1.88
2023-06-19T14:37:58.437Z,1.85
2023-06-19T14:43:02.199Z,1.83
2023-06-19T14:48:06.593Z,2.03
2023-06-19T14:53:12.198Z,1.50
2023-06-19T14:58:16.366Z,1.73
2023-06-19T15:03:20.268Z,1.83
2023-06-19T15:08:25.618Z,1.92
2023-06-19T15:13:29.321Z,1.23
2023-06-19T15:18:33.102Z,1.77
2023-06-19T15:23:41.515Z,1.58
2023-06-19T15:28:45.183Z,1.83
2023-06-19T15:33:48.935Z,1.52
2023-06-19T15:38:54.315Z,1.70
2023-06-19T15:49:00.981Z,1.75
2023-06-19T15:54:06.485Z,1.55
2023-06-19T15:59:10.207Z,1.55
2023-06-19T16:04:14.097Z,1.73
2023-06-19T16:09:19.446Z,1.63
2023-06-19T16:14:23.255Z,1.70
2023-06-19T16:19:46.390Z,1.13
2023-06-19T16:25:01.564Z,1.60
2023-06-19T16:30:05.995Z,1.58
2023-06-19T16:35:24.467Z,1.50
2023-06-19T16:40:39.448Z,1.40
2023-06-19T16:45:45.773Z,0.88
2023-06-19T16:50:49.453Z,1.55
2023-06-19T16:55:54.788Z,1.35
2023-06-19T17:00:58.485Z,1.40
2023-06-19T17:06:12.908Z,1.40
2023-06-19T17:11:21.535Z,1.33
2023-06-19T17:16:25.333Z,1.30
2023-06-19T17:21:29.000Z,1.50
2023-06-19T17:26:34.391Z,1.50
2023-06-19T17:31:38.060Z,1.40
2023-06-19T17:36:41.733Z,1.90
2023-06-19T17:41:47.032Z,1.58
2023-06-19T17:46:50.749Z,1.65
2023-06-19T17:51:54.456Z,1.63
2023-06-19T17:56:59.818Z,1.50
2023-06-19T18:02:03.521Z,1.30
2023-06-19T18:07:07.997Z,1.48
2023-06-19T18:12:13.545Z,1.40
2023-06-19T18:17:17.316Z,1.38
2023-06-19T18:22:21.066Z,1.17
2023-06-19T18:27:26.367Z,1.27
2023-06-19T18:32:30.057Z,1.30
2023-06-19T18:37:33.738Z,1.40
2023-06-19T18:42:39.039Z,1.45
2023-06-19T18:47:42.759Z,1.40
2023-06-19T18:52:46.482Z,1.30
2023-06-19T18:57:51.945Z,1.23
2023-06-19T19:02:55.732Z,1.20
2023-06-19T19:07:59.612Z,1.37
2023-06-19T19:13:04.954Z,1.42
2023-06-19T19:18:08.663Z,1.20
2023-06-19T19:23:12.397Z,1.55
2023-06-19T19:28:17.762Z,1.13
2023-06-19T19:33:21.556Z,1.17
2023-06-19T19:38:25.309Z,1.50
2023-06-19T19:43:30.606Z,1.38
2023-06-19T19:48:34.353Z,1.52
2023-06-19T19:53:38.003Z,1.05
2023-06-19T19:58:43.300Z,1.35
2023-06-19T20:03:47.090Z,0.95
2023-06-19T20:08:51.592Z,1.23
2023-06-19T20:13:56.932Z,0.95
2023-06-19T20:19:00.640Z,1.10
2023-06-19T20:24:04.539Z,1.00
2023-06-19T20:29:09.950Z,1.13
2023-06-19T20:34:13.664Z,1.00
2023-06-19T20:39:17.341Z,1.30
2023-06-19T20:44:22.612Z,1.10
2023-06-19T20:49:26.379Z,1.20
2023-06-19T20:54:30.035Z,1.17
2023-06-19T20:59:35.345Z,1.10
2023-06-19T21:04:38.982Z,1.40
2023-06-19T21:09:42.998Z,0.93
2023-06-19T21:14:48.369Z,1.30
2023-06-19T21:19:52.105Z,1.02
2023-06-19T21:24:55.794Z,1.08
2023-06-19T21:30:01.162Z,0.90
2023-06-19T21:35:05.125Z,1.10
2023-06-19T21:40:09.569Z,0.90
2023-06-19T21:45:14.940Z,0.88
2023-06-19T21:50:18.764Z,1.05
2023-06-19T21:55:22.559Z,1.25
2023-06-19T22:00:28.985Z,1.08
2023-06-19T22:05:33.264Z,1.10
2023-06-19T22:10:36.955Z,0.75
2023-06-19T22:15:42.316Z,0.90
2023-06-19T22:20:46.051Z,1.00
2023-06-19T22:25:49.804Z,0.85
2023-06-19T22:30:55.124Z,0.75
2023-06-19T22:35:58.876Z,0.98
2023-06-19T22:41:02.574Z,0.80
2023-06-19T22:46:07.917Z,0.73
2023-06-19T22:51:11.822Z,0.98
2023-06-19T22:56:15.578Z,1.00
2023-06-19T23:01:20.934Z,0.75
2023-06-19T23:06:25.482Z,0.70
2023-06-19T23:11:29.179Z,0.90
2023-06-19T23:16:34.706Z,1.23
2023-06-19T23:21:39.127Z,0.90
2023-06-19T23:26:42.808Z,0.90
2023-06-19T23:31:48.815Z,0.80
2023-06-19T23:36:53.841Z,0.75
2023-06-19T23:41:57.676Z,1.00
2023-06-19T23:47:03.023Z,0.85
2023-06-19T23:52:07.548Z,1.00
2023-06-19T23:57:11.252Z,0.90
